Time;durP1;ratioP1;P1;durP2;ratioP2;P2;SDS_P1;SDS_P2;PMS_P1;PMS_P2;Temp;Humidity;BMP_temperature;BMP_pressure;BME280_temperature;BME280_humidity;BME280_pressure;Samples;Min_cycle;Max_cycle;Signal;HPM_P1;HPM_P2
2023/12/08 00:01:12;;;;;;;15.93;9.33;;;5.90;70.80;;;;;;5055254;28;20025;-63
2023/12/08 00:03:38;;;;;;;18.73;10.00;;;5.90;70.80;;;;;;5053143;28;20369;-63
2023/12/08 00:06:04;;;;;;;17.63;9.60;;;5.90;70.80;;;;;;5089602;28;20021;-63
2023/12/08 00:08:30;;;;;;;17.63;9.67;;;5.90;70.70;;;;;;5091981;28;20029;-64
2023/12/08 00:10:55;;;;;;;16.70;9.67;;;5.90;70.80;;;;;;5057281;28;20078;-63
2023/12/08 00:13:22;;;;;;;16.33;9.27;;;5.80;70.90;;;;;;5057187;28;20415;-63
2023/12/08 00:15:47;;;;;;;16.57;9.67;;;5.80;70.90;;;;;;5065803;28;20478;-63
2023/12/08 00:18:13;;;;;;;16.40;9.87;;;5.80;70.90;;;;;;5054525;28;20138;-63
2023/12/08 00:20:39;;;;;;;18.67;10.33;;;5.80;70.90;;;;;;5053035;28;20048;-66
2023/12/08 00:23:06;;;;;;;16.87;9.37;;;5.80;70.90;;;;;;5050891;28;20108;-66
2023/12/08 00:25:31;;;;;;;17.90;10.27;;;5.90;71.00;;;;;;5051597;28;20025;-66
2023/12/08 00:27:58;;;;;;;16.90;10.13;;;5.90;70.90;;;;;;5054399;28;20330;-66
2023/12/08 00:30:23;;;;;;;17.63;9.73;;;5.90;70.90;;;;;;5053461;28;20155;-66
2023/12/08 00:32:49;;;;;;;16.43;9.80;;;5.90;70.70;;;;;;5054824;28;20107;-64
2023/12/08 00:35:15;;;;;;;16.43;9.60;;;5.90;70.80;;;;;;5050629;28;20040;-63
2023/12/08 00:37:41;;;;;;;18.77;11.23;;;5.90;70.80;;;;;;5052654;28;20346;-63
2023/12/08 00:40:08;;;;;;;17.77;10.53;;;5.90;70.80;;;;;;5055633;28;20028;-63
2023/12/08 00:42:34;;;;;;;16.60;9.87;;;5.90;70.80;;;;;;5048310;28;20025;-63
2023/12/08 00:45:00;;;;;;;15.17;9.70;;;5.90;70.80;;;;;;5055569;28;20033;-63
2023/12/08 00:47:25;;;;;;;18.10;10.47;;;5.90;70.70;;;;;;5053520;28;20315;-63
2023/12/08 00:49:51;;;;;;;16.77;9.97;;;5.90;70.80;;;;;;5053079;28;20028;-63
2023/12/08 00:52:18;;;;;;;17.50;9.43;;;5.80;70.70;;;;;;5052267;28;20461;-63
2023/12/08 00:54:44;;;;;;;14.20;8.77;;;5.80;70.60;;;;;;5055785;28;20051;-66
2023/12/08 00:57:09;;;;;;;18.27;9.43;;;5.80;70.70;;;;;;5053404;28;20021;-66
2023/12/08 00:59:35;;;;;;;16.93;9.77;;;5.90;70.70;;;;;;5049891;28;20484;-66
2023/12/08 01:02:01;;;;;;;13.17;8.33;;;5.90;70.80;;;;;;5056772;28;20109;-66
2023/12/08 01:04:27;;;;;;;14.93;8.40;;;5.90;70.70;;;;;;5052738;28;20052;-66
2023/12/08 01:06:53;;;;;;;14.60;8.47;;;5.90;70.70;;;;;;5054173;28;20052;-66
2023/12/08 01:09:18;;;;;;;14.50;8.50;;;5.90;70.60;;;;;;5052109;28;20519;-66
2023/12/08 01:11:44;;;;;;;14.20;8.40;;;6.00;70.60;;;;;;5047738;28;20036;-66
2023/12/08 01:14:10;;;;;;;13.87;8.33;;;6.00;70.50;;;;;;5055377;28;20040;-66
2023/12/08 01:16:42;;;;;;;13.90;8.23;;;6.00;70.50;;;;;;5054924;28;20111;-66
2023/12/08 01:19:12;;;;;;;15.67;8.83;;;6.00;70.50;;;;;;5050708;28;20099;-66
2023/12/08 01:21:39;;;;;;;14.57;8.63;;;6.00;70.50;;;;;;5051914;28;20036;-66
2023/12/08 01:24:06;;;;;;;13.53;8.07;;;6.00;70.50;;;;;;5051783;28;20033;-66
2023/12/08 01:26:31;;;;;;;13.03;8.30;;;6.00;70.60;;;;;;5054785;28;20040;-66
2023/12/08 01:28:57;;;;;;;13.87;8.20;;;5.90;70.50;;;;;;5056839;28;20037;-66
2023/12/08 01:31:23;;;;;;;15.27;9.07;;;5.90;70.60;;;;;;5049678;28;20055;-66
2023/12/08 01:33:49;;;;;;;15.37;8.50;;;5.90;70.60;;;;;;5055955;28;20036;-66
2023/12/08 01:36:15;;;;;;;12.97;7.93;;;6.00;70.60;;;;;;5053129;28;20029;-66
2023/12/08 01:38:47;;;;;;;15.50;8.63;;;6.00;70.60;;;;;;5053555;28;20036;-66
2023/12/08 01:41:16;;;;;;;13.70;8.17;;;6.00;70.60;;;;;;5050094;28;20167;-66
2023/12/08 01:43:43;;;;;;;13.53;8.33;;;6.00;70.50;;;;;;5052295;28;20107;-66
2023/12/08 01:46:18;;;;;;;14.63;8.87;;;6.00;70.50;;;;;;5056134;28;20032;-66
2023/12/08 01:48:45;;;;;;;14.33;8.63;;;6.00;70.40;;;;;;5054581;28;20047;-66
2023/12/08 01:51:13;;;;;;;15.97;8.97;;;6.00;70.40;;;;;;5054866;28;20044;-66
2023/12/08 01:53:40;;;;;;;15.27;8.73;;;6.00;70.40;;;;;;5053607;28;20047;-66
2023/12/08 01:56:08;;;;;;;13.63;8.40;;;6.00;70.30;;;;;;5055011;28;20039;-63
2023/12/08 01:58:34;;;;;;;13.77;8.60;;;6.00;70.20;;;;;;5052963;28;20033;-63
2023/12/08 02:01:04;;;;;;;14.97;8.70;;;6.00;70.20;;;;;;5050071;28;20353;-63
2023/12/08 02:03:33;;;;;;;14.53;8.53;;;6.00;70.10;;;;;;5081777;28;20327;-63
2023/12/08 02:06:00;;;;;;;15.20;8.83;;;6.00;70.10;;;;;;5054727;28;20058;-63
2023/12/08 02:08:27;;;;;;;16.50;9.40;;;6.00;70.10;;;;;;5053181;28;20028;-63
2023/12/08 02:10:53;;;;;;;14.50;8.60;;;6.00;70.00;;;;;;5053742;28;20090;-63
2023/12/08 02:13:21;;;;;;;13.63;8.20;;;6.00;70.00;;;;;;5056606;28;20529;-63
2023/12/08 02:15:52;;;;;;;15.17;9.27;;;6.00;69.90;;;;;;5050000;28;20063;-63
2023/12/08 02:18:19;;;;;;;;;;;6.00;69.90;;;;;;5056172;28;20048;-63
2023/12/08 02:20:45;;;;;;;14.47;8.63;;;6.00;70.00;;;;;;5052559;28;19908;-63
2023/12/08 02:23:11;;;;;;;14.03;8.30;;;6.00;70.00;;;;;;5053072;28;20017;-63
2023/12/08 02:25:37;;;;;;;15.13;8.87;;;6.00;70.00;;;;;;5055446;28;20421;-63
2023/12/08 02:28:04;;;;;;;14.80;8.27;;;6.00;70.00;;;;;;5054356;28;20515;-63
2023/12/08 02:30:31;;;;;;;16.97;9.17;;;6.00;70.00;;;;;;5048978;28;20029;-63
2023/12/08 02:33:22;;;;;;;13.90;8.50;;;6.00;70.00;;;;;;5054432;28;20090;-63
2023/12/08 02:35:49;;;;;;;14.70;9.55;;;6.10;70.10;;;;;;5051829;28;20083;-66
2023/12/08 02:38:20;;;;;;;17.80;9.67;;;6.00;70.00;;;;;;5051879;28;20087;-64
2023/12/08 02:40:46;;;;;;;16.35;9.88;;;6.00;70.10;;;;;;5050829;28;20040;-64
2023/12/08 02:43:12;;;;;;;16.17;9.30;;;6.00;70.20;;;;;;5085725;28;20073;-64
2023/12/08 02:45:37;;;;;;;17.10;9.93;;;6.00;70.40;;;;;;5052740;28;20020;-64
2023/12/08 02:48:03;;;;;;;14.57;8.83;;;6.00;70.50;;;;;;5053983;28;20095;-64
2023/12/08 02:50:29;;;;;;;15.07;9.63;;;6.00;71.20;;;;;;5053469;28;20100;-64
2023/12/08 02:52:55;;;;;;;16.83;9.13;;;6.00;70.70;;;;;;5037452;28;20103;-64
2023/12/08 02:55:21;;;;;;;16.57;9.10;;;6.00;70.80;;;;;;5048312;28;20031;-64
2023/12/08 02:57:46;;;;;;;14.77;8.90;;;6.00;70.90;;;;;;5029878;28;20108;-64
2023/12/08 03:00:12;;;;;;;16.03;9.10;;;5.90;71.00;;;;;;5049391;28;20342;-64
2023/12/08 03:02:38;;;;;;;14.70;8.90;;;5.90;71.10;;;;;;5050868;28;20025;-64
2023/12/08 03:05:04;;;;;;;16.10;9.67;;;5.90;71.20;;;;;;5053209;28;20051;-64
2023/12/08 03:07:30;;;;;;;14.90;9.53;;;5.90;71.30;;;;;;5053372;28;20134;-64
2023/12/08 03:09:56;;;;;;;15.03;8.67;;;5.90;71.40;;;;;;5055530;28;20085;-64
2023/12/08 03:12:21;;;;;;;17.00;9.37;;;5.90;71.50;;;;;;5053956;28;20124;-64
2023/12/08 03:14:47;;;;;;;15.60;9.03;;;5.90;72.30;;;;;;5052717;28;20128;-64
2023/12/08 03:17:13;;;;;;;15.70;9.20;;;5.90;71.80;;;;;;5054298;28;20040;-64
2023/12/08 03:19:40;;;;;;;14.67;8.93;;;5.90;71.90;;;;;;5047561;28;20033;-64
2023/12/08 03:22:06;;;;;;;15.20;9.17;;;5.90;72.10;;;;;;5035201;28;20026;-64
2023/12/08 03:24:32;;;;;;;15.00;9.07;;;5.90;72.20;;;;;;5051071;28;20036;-64
2023/12/08 03:26:57;;;;;;;15.93;9.20;;;5.80;72.30;;;;;;5052319;28;20021;-64
2023/12/08 03:29:23;;;;;;;15.33;8.57;;;5.80;72.40;;;;;;5054070;28;20655;-64
2023/12/08 03:31:49;;;;;;;14.17;7.83;;;5.80;72.50;;;;;;5050028;28;20044;-64
2023/12/08 03:34:15;;;;;;;15.70;9.13;;;5.80;72.60;;;;;;5053641;28;20048;-64
2023/12/08 03:36:40;;;;;;;15.00;8.77;;;5.80;72.70;;;;;;5050618;28;20033;-64
2023/12/08 03:39:06;;;;;;;14.73;9.03;;;5.80;72.80;;;;;;5052654;28;20295;-64
2023/12/08 03:41:32;;;;;;;16.77;9.77;;;5.80;72.90;;;;;;5051841;28;20021;-64
2023/12/08 03:43:57;;;;;;;16.17;9.37;;;5.80;72.90;;;;;;5048430;28;20119;-64
2023/12/08 03:46:23;;;;;;;16.87;9.30;;;5.80;73.00;;;;;;5053018;28;20027;-64
2023/12/08 03:48:49;;;;;;;15.37;9.43;;;5.80;73.10;;;;;;5050712;28;20064;-64
2023/12/08 03:51:15;;;;;;;16.03;9.97;;;5.80;73.20;;;;;;5048918;28;20021;-64
2023/12/08 03:53:41;;;;;;;18.63;10.93;;;5.80;73.20;;;;;;5052616;28;20374;-64
2023/12/08 03:56:07;;;;;;;15.20;9.47;;;5.80;73.30;;;;;;5053531;28;20094;-64
2023/12/08 03:58:33;;;;;;;16.07;9.43;;;5.80;74.10;;;;;;5054910;28;20028;-64
2023/12/08 04:00:59;;;;;;;15.53;9.23;;;5.80;73.40;;;;;;5052378;28;20029;-64
2023/12/08 04:03:25;;;;;;;18.60;9.43;;;5.80;73.50;;;;;;5054316;28;20520;-64
2023/12/08 04:05:51;;;;;;;14.57;8.50;;;5.80;73.60;;;;;;5054154;28;20043;-64
2023/12/08 04:08:17;;;;;;;16.73;9.83;;;5.80;73.60;;;;;;5053302;28;20020;-64
2023/12/08 04:10:43;;;;;;;16.30;9.07;;;5.80;73.60;;;;;;5051700;28;20369;-64
2023/12/08 04:13:09;;;;;;;16.63;9.87;;;5.80;73.70;;;;;;5053716;28;20032;-64
2023/12/08 04:15:34;;;;;;;13.70;8.53;;;5.80;73.70;;;;;;5052871;28;20411;-64
2023/12/08 04:18:00;;;;;;;16.83;9.77;;;5.80;73.70;;;;;;5051876;28;20131;-64
2023/12/08 04:20:26;;;;;;;16.93;9.47;;;5.80;73.80;;;;;;5087991;28;20450;-64
2023/12/08 04:22:52;;;;;;;16.53;10.30;;;5.80;73.90;;;;;;5050510;28;20087;-64
2023/12/08 04:25:17;;;;;;;17.37;10.23;;;5.80;73.90;;;;;;5052188;28;20345;-64
2023/12/08 04:27:43;;;;;;;17.57;10.50;;;5.70;73.90;;;;;;5056523;28;20494;-64
2023/12/08 04:30:09;;;;;;;17.00;10.10;;;5.70;73.90;;;;;;5054380;28;20047;-64
2023/12/08 04:32:35;;;;;;;16.07;9.77;;;5.70;74.10;;;;;;5055733;28;20031;-64
2023/12/08 04:35:01;;;;;;;16.30;9.33;;;5.80;74.20;;;;;;5056638;28;20020;-64
2023/12/08 04:37:27;;;;;;;15.40;9.53;;;5.70;74.80;;;;;;5063178;28;20461;-64
2023/12/08 04:39:53;;;;;;;16.73;10.57;;;5.70;74.20;;;;;;5063988;28;20029;-64
2023/12/08 04:42:18;;;;;;;15.33;9.30;;;5.70;74.20;;;;;;5053128;28;20331;-64
2023/12/08 04:44:44;;;;;;;18.77;10.43;;;5.70;74.30;;;;;;5056069;28;20056;-64
2023/12/08 04:47:10;;;;;;;17.17;10.03;;;5.70;74.30;;;;;;5056530;28;20101;-64
2023/12/08 04:49:36;;;;;;;17.70;9.63;;;5.70;74.30;;;;;;5057985;28;20040;-64
2023/12/08 04:52:02;;;;;;;16.10;9.23;;;5.70;74.40;;;;;;5056900;28;20037;-64
2023/12/08 04:54:28;;;;;;;18.90;10.87;;;5.70;74.50;;;;;;5065279;28;20024;-64
2023/12/08 04:56:54;;;;;;;17.93;10.07;;;5.70;74.50;;;;;;5075478;28;20035;-64
2023/12/08 04:59:20;;;;;;;16.90;9.10;;;5.70;74.50;;;;;;5055656;28;20454;-64
2023/12/08 05:01:52;;;;;;;17.23;10.63;;;5.70;74.60;;;;;;5068483;28;20057;-64
2023/12/08 05:04:22;;;;;;;17.60;10.73;;;5.70;74.70;;;;;;5053654;28;20104;-64
2023/12/08 05:06:48;;;;;;;17.03;9.97;;;5.70;74.80;;;;;;5064488;28;20104;-64
2023/12/08 05:09:14;;;;;;;15.60;9.30;;;5.70;74.80;;;;;;5055176;28;20505;-64
2023/12/08 05:11:39;;;;;;;16.93;9.57;;;5.70;74.80;;;;;;5056497;28;20426;-64
2023/12/08 05:14:05;;;;;;;17.67;10.17;;;5.70;74.80;;;;;;5057025;28;20330;-64
2023/12/08 05:16:31;;;;;;;19.03;10.73;;;5.80;75.00;;;;;;5054830;28;20029;-64
2023/12/08 05:18:57;;;;;;;19.53;11.80;;;5.80;75.00;;;;;;5053151;28;20041;-64
2023/12/08 05:21:24;;;;;;;18.20;10.97;;;5.70;75.00;;;;;;5057813;28;20028;-64
2023/12/08 05:23:50;;;;;;;17.50;10.50;;;5.70;75.10;;;;;;5067474;28;20107;-64
2023/12/08 05:26:16;;;;;;;20.00;11.17;;;5.80;75.10;;;;;;5061214;28;20480;-64
2023/12/08 05:28:41;;;;;;;20.20;11.57;;;5.80;75.20;;;;;;5066423;28;20060;-64
2023/12/08 05:31:07;;;;;;;16.37;9.83;;;5.70;75.20;;;;;;5055314;28;20146;-63
2023/12/08 05:33:33;;;;;;;19.33;10.73;;;5.80;75.30;;;;;;5071522;28;20032;-64
2023/12/08 05:35:59;;;;;;;18.70;10.80;;;5.80;75.30;;;;;;5055064;28;20028;-64
2023/12/08 05:38:24;;;;;;;18.83;10.60;;;5.80;75.30;;;;;;5067227;28;20025;-64
2023/12/08 05:40:50;;;;;;;17.97;10.47;;;5.80;75.40;;;;;;5054220;28;20025;-64
2023/12/08 05:43:16;;;;;;;15.73;9.63;;;5.80;75.40;;;;;;5061345;28;20052;-64
2023/12/08 05:45:42;;;;;;;18.27;11.00;;;5.80;75.40;;;;;;5066358;28;20028;-64
2023/12/08 05:48:07;;;;;;;17.77;10.30;;;5.80;75.40;;;;;;5071139;28;20027;-64
2023/12/08 05:50:33;;;;;;;20.57;10.83;;;5.80;75.50;;;;;;5055095;28;20027;-64
2023/12/08 05:52:59;;;;;;;18.73;11.43;;;5.80;75.50;;;;;;5060302;28;20037;-64
2023/12/08 05:55:25;;;;;;;18.40;10.37;;;5.80;75.50;;;;;;5069240;28;20331;-65
2023/12/08 05:57:51;;;;;;;19.47;11.53;;;5.80;75.40;;;;;;5064625;28;20045;-64
2023/12/08 06:00:18;;;;;;;20.27;12.17;;;5.90;75.60;;;;;;5069543;28;20440;-63
2023/12/08 06:02:45;;;;;;;17.63;10.50;;;5.80;75.50;;;;;;5069956;28;20151;-63
2023/12/08 06:05:12;;;;;;;20.60;11.47;;;5.90;75.60;;;;;;5066924;28;20113;-63
2023/12/08 06:07:38;;;;;;;18.73;11.97;;;5.90;75.60;;;;;;5073374;28;20475;-66
2023/12/08 06:10:05;;;;;;;20.20;11.33;;;5.90;75.70;;;;;;5053538;28;20029;-65
2023/12/08 06:12:31;;;;;;;19.67;10.93;;;5.90;75.70;;;;;;5071525;28;20145;-63
2023/12/08 06:15:00;;;;;;;21.57;12.40;;;5.90;75.80;;;;;;5055627;28;20110;-67
2023/12/08 06:17:29;;;;;;;22.87;12.43;;;5.90;75.80;;;;;;5062942;28;20029;-65
2023/12/08 06:19:55;;;;;;;21.37;13.00;;;5.90;75.80;;;;;;5064023;28;20457;-65
2023/12/08 06:22:21;;;;;;;21.30;12.40;;;5.90;75.80;;;;;;5047821;28;20393;-65
2023/12/08 06:24:47;;;;;;;24.17;13.67;;;5.90;75.90;;;;;;5058448;28;20035;-65
2023/12/08 06:27:14;;;;;;;19.40;12.23;;;5.80;75.90;;;;;;5063217;28;20031;-65
2023/12/08 06:29:40;;;;;;;22.17;13.67;;;5.80;75.90;;;;;;5069143;28;20021;-64
2023/12/08 06:32:06;;;;;;;20.97;12.47;;;5.90;76.10;;;;;;5056939;28;20445;-64
2023/12/08 06:34:32;;;;;;;18.77;12.20;;;5.80;76.00;;;;;;5044473;28;20025;-64
2023/12/08 06:36:59;;;;;;;20.40;12.70;;;5.80;76.10;;;;;;5060215;28;20410;-65
2023/12/08 06:39:25;;;;;;;22.17;13.40;;;5.90;76.20;;;;;;5057406;28;20349;-65
2023/12/08 06:41:51;;;;;;;21.27;12.77;;;5.90;76.20;;;;;;5052094;28;20149;-64
2023/12/08 06:44:17;;;;;;;21.10;12.17;;;5.90;76.20;;;;;;5048106;28;20090;-63
2023/12/08 06:46:43;;;;;;;19.93;12.20;;;5.80;76.20;;;;;;5050156;28;20025;-66
2023/12/08 06:49:09;;;;;;;19.23;11.93;;;5.90;76.30;;;;;;5052255;28;20353;-66
2023/12/08 06:51:35;;;;;;;21.03;13.03;;;5.90;76.30;;;;;;5050875;28;20036;-67
2023/12/08 06:54:02;;;;;;;20.67;12.07;;;5.90;76.40;;;;;;5051738;28;20040;-64
2023/12/08 06:56:28;;;;;;;23.57;13.63;;;5.90;76.40;;;;;;5052000;28;20140;-66
2023/12/08 06:58:54;;;;;;;20.40;12.93;;;5.90;76.50;;;;;;5051066;28;20111;-65
2023/12/08 07:01:20;;;;;;;22.47;12.30;;;5.90;76.50;;;;;;5051585;28;20162;-62
2023/12/08 07:03:47;;;;;;;20.83;12.10;;;5.90;76.50;;;;;;5052203;28;20112;-62
2023/12/08 07:06:13;;;;;;;20.73;13.03;;;5.90;76.50;;;;;;5053068;28;20016;-62
2023/12/08 07:08:39;;;;;;;22.97;13.90;;;5.90;76.50;;;;;;5054163;28;20112;-63
2023/12/08 07:11:05;;;;;;;21.60;12.70;;;5.90;76.50;;;;;;5053328;28;20109;-62
2023/12/08 07:13:30;;;;;;;23.03;13.03;;;5.90;76.60;;;;;;5067432;28;20036;-63
2023/12/08 07:15:56;;;;;;;21.67;12.60;;;5.90;76.70;;;;;;5052304;28;20327;-63
2023/12/08 07:18:22;;;;;;;23.13;13.20;;;5.90;76.70;;;;;;5051540;28;20037;-63
2023/12/08 07:20:47;;;;;;;20.23;12.20;;;5.90;76.80;;;;;;5052160;28;20098;-64
2023/12/08 07:23:13;;;;;;;21.37;12.87;;;5.90;76.80;;;;;;5052370;28;20387;-62
2023/12/08 07:25:39;;;;;;;22.03;12.63;;;5.90;76.80;;;;;;5054379;28;20025;-63
2023/12/08 07:28:05;;;;;;;21.43;12.30;;;5.90;76.80;;;;;;5056776;28;20047;-62
2023/12/08 07:30:30;;;;;;;23.63;12.57;;;5.90;76.80;;;;;;5052413;28;20059;-64
2023/12/08 07:32:56;;;;;;;19.90;12.03;;;5.90;76.90;;;;;;5054195;28;20017;-63
2023/12/08 07:35:22;;;;;;;20.37;12.53;;;5.90;76.90;;;;;;5052118;28;20039;-64
2023/12/08 07:37:49;;;;;;;20.07;12.60;;;5.90;77.00;;;;;;5036132;28;20027;-65
2023/12/08 07:40:14;;;;;;;21.43;12.40;;;5.90;77.00;;;;;;5052736;28;20433;-62
2023/12/08 07:42:41;;;;;;;21.43;13.13;;;5.90;77.00;;;;;;5049866;28;20055;-62
2023/12/08 07:45:08;;;;;;;22.20;12.07;;;6.00;77.20;;;;;;5052106;28;20088;-62
2023/12/08 07:47:34;;;;;;;22.07;11.63;;;6.00;77.20;;;;;;5051207;28;20136;-62
2023/12/08 07:50:00;;;;;;;22.87;13.47;;;6.00;77.20;;;;;;5052255;28;20126;-63
2023/12/08 07:52:26;;;;;;;21.13;12.97;;;6.00;77.30;;;;;;5052362;28;20021;-63
2023/12/08 07:54:52;;;;;;;24.67;13.37;;;6.00;77.30;;;;;;5053877;28;20041;-63
2023/12/08 07:57:18;;;;;;;22.07;12.90;;;6.00;77.30;;;;;;5051852;28;20127;-64
2023/12/08 07:59:44;;;;;;;23.10;13.43;;;6.00;77.40;;;;;;5052973;28;20061;-63
2023/12/08 08:02:10;;;;;;;21.93;12.83;;;6.00;77.40;;;;;;5056198;28;20464;-67
2023/12/08 08:04:36;;;;;;;21.40;12.67;;;6.00;77.40;;;;;;5054133;28;20108;-66
2023/12/08 08:07:02;;;;;;;20.90;13.60;;;6.10;77.50;;;;;;5059271;28;20021;-66
2023/12/08 08:09:28;;;;;;;20.63;12.43;;;6.10;77.50;;;;;;5059457;28;20040;-66
2023/12/08 08:11:53;;;;;;;20.10;12.83;;;6.10;77.50;;;;;;5057779;28;20112;-65
2023/12/08 08:14:20;;;;;;;26.43;13.07;;;6.10;77.60;;;;;;5057506;28;20040;-65
2023/12/08 08:16:47;;;;;;;23.40;14.07;;;6.10;77.70;;;;;;5054929;28;20055;-64
2023/12/08 08:19:13;;;;;;;22.23;13.43;;;6.10;77.80;;;;;;5056635;28;20110;-63
2023/12/08 08:21:39;;;;;;;23.00;13.30;;;6.10;77.70;;;;;;5057874;28;20021;-63
2023/12/08 08:24:05;;;;;;;20.77;11.83;;;6.10;77.70;;;;;;5038997;28;20159;-63
2023/12/08 08:26:31;;;;;;;24.73;14.60;;;6.10;77.80;;;;;;5056580;28;20024;-63
2023/12/08 08:28:56;;;;;;;21.43;13.47;;;6.10;77.90;;;;;;5055392;28;20453;-63
2023/12/08 08:31:22;;;;;;;21.00;12.77;;;6.10;78.00;;;;;;5054844;28;20043;-64
2023/12/08 08:33:48;;;;;;;24.27;14.47;;;6.20;78.10;;;;;;5057255;28;20123;-66
2023/12/08 08:36:14;;;;;;;24.30;14.17;;;6.20;78.10;;;;;;5056804;28;20570;-65
2023/12/08 08:38:40;;;;;;;22.90;14.10;;;6.20;78.20;;;;;;5055643;28;20113;-64
2023/12/08 08:41:06;;;;;;;21.97;13.07;;;6.20;78.20;;;;;;5057354;28;20426;-65
2023/12/08 08:43:32;;;;;;;22.57;13.57;;;6.20;78.30;;;;;;5057586;28;20424;-63
2023/12/08 08:45:57;;;;;;;23.10;14.27;;;6.20;78.30;;;;;;5055437;28;20127;-66
2023/12/08 08:48:23;;;;;;;24.37;13.63;;;6.20;78.30;;;;;;5038391;28;20051;-64
2023/12/08 08:50:49;;;;;;;19.70;12.10;;;6.20;78.40;;;;;;5058720;28;20055;-64
2023/12/08 08:53:18;;;;;;;21.47;12.90;;;6.20;78.40;;;;;;5069362;28;20068;-65
2023/12/08 08:55:44;;;;;;;22.53;12.87;;;6.20;78.40;;;;;;5071153;28;20056;-66
2023/12/08 08:58:10;;;;;;;23.97;13.43;;;6.30;78.60;;;;;;5057805;28;20033;-66
2023/12/08 09:00:36;;;;;;;23.47;13.40;;;6.30;78.60;;;;;;5054596;28;20051;-66
2023/12/08 09:03:02;;;;;;;23.93;13.27;;;6.30;78.70;;;;;;5056379;28;20350;-66
2023/12/08 09:05:30;;;;;;;23.63;12.50;;;6.30;78.70;;;;;;5054504;28;20025;-66
2023/12/08 09:07:56;;;;;;;22.47;12.97;;;6.30;78.80;;;;;;5054679;28;20402;-66
2023/12/08 09:10:22;;;;;;;23.47;13.17;;;6.30;78.80;;;;;;5057988;28;20044;-66
2023/12/08 09:12:48;;;;;;;22.27;12.53;;;6.30;78.90;;;;;;5055309;28;20029;-66
2023/12/08 09:15:14;;;;;;;19.43;12.30;;;6.40;78.90;;;;;;5053978;28;20055;-67
2023/12/08 09:17:41;;;;;;;22.93;12.60;;;6.40;79.00;;;;;;5053342;28;20458;-66
2023/12/08 09:20:13;;;;;;;20.60;12.43;;;6.40;79.00;;;;;;5055170;28;20040;-66
2023/12/08 09:22:40;;;;;;;19.50;11.70;;;6.40;79.00;;;;;;5058615;28;20169;-65
2023/12/08 09:25:06;;;;;;;22.03;12.90;;;6.40;79.10;;;;;;5051979;28;20048;-66
2023/12/08 09:27:32;;;;;;;19.13;11.87;;;6.40;79.10;;;;;;5056076;28;20107;-65
2023/12/08 09:29:58;;;;;;;22.10;12.73;;;6.40;79.20;;;;;;5057442;28;20477;-65
2023/12/08 09:32:24;;;;;;;22.17;12.93;;;6.40;79.20;;;;;;5055977;28;20033;-65
2023/12/08 09:34:49;;;;;;;22.20;11.77;;;6.50;79.30;;;;;;5055549;28;20025;-65
2023/12/08 09:37:15;;;;;;;19.33;11.50;;;6.50;79.30;;;;;;5055254;28;20059;-65
2023/12/08 09:39:41;;;;;;;24.37;13.40;;;6.50;79.30;;;;;;5063905;28;20036;-65
2023/12/08 09:42:11;;;;;;;20.63;13.07;;;6.50;79.30;;;;;;5054414;28;20409;-66
2023/12/08 09:44:37;;;;;;;22.17;12.67;;;6.50;79.40;;;;;;5057948;28;20401;-67
2023/12/08 09:47:04;;;;;;;20.43;11.87;;;6.50;79.40;;;;;;5056971;28;20040;-66
2023/12/08 09:49:36;;;;;;;22.43;12.27;;;6.50;79.40;;;;;;5036601;28;20044;-67
2023/12/08 09:52:03;;;;;;;18.57;11.63;;;6.50;79.40;;;;;;5068151;28;20361;-66
2023/12/08 09:54:29;;;;;;;22.47;11.63;;;6.60;79.50;;;;;;5054014;28;20453;-66
2023/12/08 09:56:56;;;;;;;19.57;12.63;;;6.60;79.50;;;;;;5061941;28;20029;-67
2023/12/08 09:59:24;;;;;;;19.80;11.93;;;6.60;79.50;;;;;;5075075;28;20040;-66
2023/12/08 10:01:50;;;;;;;22.43;13.37;;;6.60;79.60;;;;;;5071073;28;20329;-65
2023/12/08 10:04:17;;;;;;;21.30;13.23;;;6.60;79.70;;;;;;5074070;28;20111;-65
2023/12/08 10:06:43;;;;;;;22.57;12.37;;;6.60;79.70;;;;;;5062864;28;20115;-67
2023/12/08 10:09:11;;;;;;;23.37;12.53;;;6.60;79.80;;;;;;5064215;28;20334;-65
2023/12/08 10:11:38;;;;;;;23.37;12.60;;;6.60;79.90;;;;;;5056913;28;20029;-65
2023/12/08 10:14:05;;;;;;;24.20;13.40;;;6.60;79.80;;;;;;5057103;28;20572;-65
2023/12/08 10:16:31;;;;;;;23.27;13.20;;;6.60;79.90;;;;;;5051744;28;20063;-65
2023/12/08 10:19:07;;;;;;;27.77;15.03;;;6.70;80.00;;;;;;5053523;28;20053;-65
2023/12/08 10:21:36;;;;;;;23.70;13.93;;;6.70;80.00;;;;;;5052758;28;20446;-66
2023/12/08 10:24:03;;;;;;;31.87;15.10;;;6.70;80.00;;;;;;5052849;28;20029;-66
2023/12/08 10:26:32;;;;;;;27.00;14.17;;;6.70;80.00;;;;;;5052795;28;20041;-66
2023/12/08 10:29:00;;;;;;;29.83;15.47;;;6.80;80.10;;;;;;5051332;28;20025;-66
2023/12/08 10:31:27;;;;;;;29.27;15.90;;;6.80;80.10;;;;;;5054139;28;20392;-66
2023/12/08 10:33:54;;;;;;;29.77;14.80;;;6.80;80.10;;;;;;5054776;28;20399;-66
2023/12/08 10:36:20;;;;;;;29.47;16.63;;;6.90;80.10;;;;;;5057599;28;20361;-66
2023/12/08 10:38:49;;;;;;;30.73;16.83;;;6.80;80.10;;;;;;5054370;28;20021;-66
2023/12/08 10:41:16;;;;;;;28.37;15.80;;;6.90;80.30;;;;;;5061653;28;20039;-66
2023/12/08 10:43:43;;;;;;;34.23;17.17;;;6.90;80.30;;;;;;5060406;28;20033;-66
2023/12/08 10:46:09;;;;;;;28.57;16.43;;;6.90;80.30;;;;;;5071524;28;20036;-66
2023/12/08 10:48:37;;;;;;;33.30;16.93;;;6.90;80.40;;;;;;5074440;28;20055;-66
2023/12/08 10:51:04;;;;;;;34.57;17.97;;;7.00;80.50;;;;;;5063415;28;20025;-66
2023/12/08 10:53:31;;;;;;;35.23;17.43;;;7.00;80.50;;;;;;5089973;28;20038;-66
2023/12/08 10:56:12;;;;;;;35.57;18.93;;;7.00;80.60;;;;;;5066366;28;20036;-66
2023/12/08 10:58:41;;;;;;;35.35;17.52;;;7.00;80.70;;;;;;5059541;28;20504;-65
2023/12/08 11:01:14;;;;;;;40.80;19.30;;;7.00;80.70;;;;;;5062061;28;20403;-66
2023/12/08 11:03:46;;;;;;;35.00;18.30;;;7.00;80.70;;;;;;5048321;28;20378;-65
2023/12/08 11:06:14;;;;;;;;;;;7.00;80.70;;;;;;5067830;28;20032;-66
2023/12/08 11:08:46;;;;;;;38.30;17.47;;;7.10;80.70;;;;;;5073204;28;20218;-66
2023/12/08 11:11:12;;;;;;;41.50;18.40;;;7.00;80.60;;;;;;5074303;28;20031;-66
2023/12/08 11:13:44;;;;;;;36.03;18.97;;;7.10;80.70;;;;;;5073097;28;20039;-66
2023/12/08 11:16:39;;;;;;;40.33;18.35;;;7.10;80.80;;;;;;5061040;28;20438;-67
2023/12/08 11:19:05;;;;;;;39.93;18.40;;;7.10;80.70;;;;;;5072701;28;20369;-66
2023/12/08 11:21:31;;;;;;;42.03;19.03;;;7.10;80.80;;;;;;5073836;28;20045;-66
2023/12/08 11:23:58;;;;;;;44.43;20.30;;;7.20;80.80;;;;;;5072934;28;20031;-66
2023/12/08 11:27:06;;;;;;;40.90;18.83;;;7.20;81.00;;;;;;5074085;28;20077;-66
2023/12/08 11:29:46;;;;;;;41.77;20.93;;;7.20;81.00;;;;;;5069056;28;20032;-67
2023/12/08 11:32:23;;;;;;;41.90;20.30;;;7.20;81.00;;;;;;5073661;28;20033;-66
2023/12/08 11:34:59;;;;;;;44.40;19.47;;;7.20;81.00;;;;;;5073288;28;20021;-66
2023/12/08 11:37:31;;;;;;;45.87;21.17;;;7.20;81.00;;;;;;5071169;28;20041;-65
2023/12/08 11:40:03;;;;;;;43.65;20.27;;;7.30;81.00;;;;;;5056450;28;20032;-64
2023/12/08 11:42:29;;;;;;;50.53;21.43;;;7.30;81.00;;;;;;5057790;28;20021;-65
2023/12/08 11:44:57;;;;;;;44.77;20.47;;;7.30;81.10;;;;;;5039188;28;20498;-65
2023/12/08 11:47:25;;;;;;;45.53;21.93;;;7.40;81.20;;;;;;5055986;28;20120;-65
2023/12/08 11:49:54;;;;;;;53.30;21.37;;;7.40;81.20;;;;;;5055498;28;20037;-64
2023/12/08 11:52:25;;;;;;;45.10;22.27;;;7.50;81.30;;;;;;5056600;28;20025;-64
2023/12/08 11:55:21;;;;;;;41.88;20.40;;;7.50;81.30;;;;;;5058086;28;20335;-64
2023/12/08 11:58:07;;;;;;;41.03;20.27;;;7.50;81.30;;;;;;5048988;28;20140;-64
2023/12/08 12:00:35;;;;;;;45.00;21.23;;;7.60;81.30;;;;;;5055780;28;20072;-64
2023/12/08 12:03:03;;;;;;;49.37;22.10;;;7.60;81.30;;;;;;5064868;28;20346;-64
2023/12/08 12:05:29;;;;;;;42.87;20.53;;;7.60;81.30;;;;;;5064241;28;20017;-64
2023/12/08 12:07:56;;;;;;;40.73;20.40;;;7.60;81.40;;;;;;5075461;28;20035;-64
2023/12/08 12:10:24;;;;;;;49.90;22.83;;;7.60;81.40;;;;;;5067289;28;20124;-64
2023/12/08 12:13:03;;;;;;;43.87;21.37;;;7.70;81.50;;;;;;5063273;28;20211;-64
2023/12/08 12:15:30;;;;;;;45.30;21.93;;;7.70;81.50;;;;;;5068866;28;20028;-64
2023/12/08 12:17:57;;;;;;;46.73;21.30;;;7.70;81.50;;;;;;5062026;28;20094;-64
2023/12/08 12:20:23;;;;;;;45.60;21.43;;;7.70;81.50;;;;;;5062509;28;20473;-64
2023/12/08 12:22:49;;;;;;;48.97;21.97;;;7.70;81.50;;;;;;5057759;28;20058;-64
2023/12/08 12:25:15;;;;;;;48.87;22.27;;;7.80;81.50;;;;;;5065359;28;20040;-64
2023/12/08 12:27:41;;;;;;;56.83;22.83;;;7.80;81.50;;;;;;5065219;28;20104;-64
2023/12/08 12:30:09;;;;;;;51.93;22.63;;;7.80;81.60;;;;;;5065411;28;20025;-64
2023/12/08 12:32:36;;;;;;;46.00;21.93;;;7.90;81.60;;;;;;5063134;28;20052;-64
2023/12/08 12:35:02;;;;;;;47.57;22.83;;;7.90;81.60;;;;;;5062175;28;20069;-64
2023/12/08 12:37:27;;;;;;;50.80;22.77;;;7.90;81.70;;;;;;5069710;28;20024;-64
2023/12/08 12:39:53;;;;;;;44.60;21.70;;;7.90;81.70;;;;;;5058030;28;20037;-65